Wilson Cadiz — 8PSY — position and weather

sailwx.info

Track history (hours):
 
Tides and Currents Weather Stations Pressure Air Temp Water Temp Dewpoint Dewpoint Depression Visibility Wind Speed Wind Dir Waves Ship Positions

Wilson Cadiz

Last reported at 2017-Mar-23 21:29 UTC. Time now 2017-Mar-26 05:20 UTC.
Position N 49°48' W 003°26'.

Length 100 m; draft 5.9 m.

Type: Ship. MMSI: 314216000.

Date/timePositionNaut miles runAvg speedWind from/ knotsBaromVisibWave heightAir tempDewpointWater temp
2017-Mar-23 21:29N 49°48' W 003°26'1311.1
2017-Mar-23 20:17N 49°55' W 003°09'810.7
2017-Mar-23 19:33N 49°59' W 002°58'1010.2
2017-Mar-23 18:33N 50°02' W 002°42'30 9.2
2017-Mar-23 15:18N 50°10' W 001°58'7 9.2
2017-Mar-23 14:33N 50°12' W 001°47'1110.0
2017-Mar-23 13:25N 50°15' W 001°30'4511.6
2017-Mar-23 09:33N 50°28' W 000°23'1111.4
2017-Mar-23 08:33N 50°31' W 000°06'1110.7
2017-Mar-23 07:31N 50°34' E 000°11'1010.1
2017-Mar-23 06:33N 50°37' E 000°26'10 9.7
2017-Mar-23 05:33N 50°41' E 000°39'10 9.8
2017-Mar-23 04:33N 50°46' E 000°53'1110.2
2017-Mar-23 03:27N 50°53' E 001°07'1011.0
2017-Mar-23 02:33N 50°60' E 001°18'1111.3
2017-Mar-23 01:33N 51°07' E 001°32'1110.7
2017-Mar-23 00:33N 51°14' E 001°45'1010.2
2017-Mar-22 23:33N 51°23' E 001°54'10 9.8
2017-Mar-22 22:33N 51°30' E 002°04'10 9.5
2017-Mar-22 21:33N 51°37' E 002°14'60 9.6
2017-Mar-22 15:17N 52°03' E 003°43'810.4
2017-Mar-22 14:33N 52°02' E 003°55'10 9.6
2017-Mar-22 13:33N 51°57' E 004°09'0 0.3
2017-Mar-22 12:32N 51°57' E 004°09'0 0.0
2017-Mar-22 11:32N 51°57' E 004°09'0 0.0
2017-Mar-22 10:33N 51°57' E 004°09'0 0.0
2017-Mar-22 09:33N 51°57' E 004°09'0 0.0
2017-Mar-22 08:33N 51°57' E 004°09'0 0.0
2017-Mar-22 07:33N 51°57' E 004°09'0 0.0
2017-Mar-22 06:33N 51°57' E 004°09'1 1.3
2017-Mar-22 05:33N 51°58' E 004°07'9 9.1
2017-Mar-22 04:33N 52°01' E 003°53'8 7.7
2017-Mar-22 03:32N 52°07' E 003°46'8 8.6
2017-Mar-22 02:33N 52°16' E 003°47'19 8.1
2017-Mar-22 00:12N 52°35' E 003°53'361 7.7
2017-Mar-20 01:28N 58°35' E 004°44'9 9.5
2017-Mar-20 00:34N 58°43' E 004°43'10 9.5
2017-Mar-19 23:33N 58°53' E 004°43'43 5.4
2017-Mar-19 15:33N 59°36' E 004°41'3 2.9
2017-Mar-19 14:33N 59°39' E 004°41'3 3.2
2017-Mar-19 13:33N 59°42' E 004°41'4 4.0
2017-Mar-19 12:33N 59°46' E 004°40'4 4.2
2017-Mar-19 11:32N 59°50' E 004°40'4 4.3
2017-Mar-19 10:33N 59°54' E 004°40'5 4.9
2017-Mar-19 09:33N 59°59' E 004°40'7 6.5
2017-Mar-19 08:33N 60°06' E 004°39'7 7.2
2017-Mar-19 07:33N 60°13' E 004°39'7 7.4
2017-Mar-19 06:33N 60°20' E 004°38'8 7.8
2017-Mar-19 05:33N 60°28' E 004°37'9 9.3
2017-Mar-19 04:33N 60°38' E 004°37'9 8.6
2017-Mar-19 03:33N 60°46' E 004°36'7 7.3
2017-Mar-19 02:33N 60°52' E 004°45'9 9.2
2017-Mar-19 01:33N 61°01' E 004°50'1110.6
2017-Mar-19 00:33N 61°06' E 005°09'1010.4
2017-Mar-18 23:33N 61°05' E 005°31'1110.7
2017-Mar-18 22:33N 61°08' E 005°52'1111.0
2017-Mar-18 21:33N 61°07' E 006°15'1010.0
2017-Mar-18 20:33N 61°09' E 006°35'9 9.4
2017-Mar-18 19:33N 61°08' E 006°54'10 9.9
2017-Mar-18 18:33N 60°58' E 007°00'7 0.6
2017-Mar-18 07:08N 60°53' E 006°50'0 0.0
2017-Mar-18 06:11N 60°53' E 006°50'0 0.0
2017-Mar-18 05:32N 60°53' E 006°50'0 0.0
2017-Mar-18 04:29N 60°53' E 006°50'0 0.0
2017-Mar-18 00:29N 60°53' E 006°50'1 0.3
2017-Mar-17 21:27N 60°54' E 006°52'7 8.2
2017-Mar-17 20:33N 60°59' E 007°02'1211.8
2017-Mar-17 19:33N 61°09' E 006°50'1111.4
2017-Mar-17 18:33N 61°06' E 006°27'1313.2
2017-Mar-17 17:33N 61°08' E 006°00'1312.9
2017-Mar-17 16:33N 61°06' E 005°34'1212.1
2017-Mar-17 15:33N 61°07' E 005°09'1211.6
2017-Mar-17 14:33N 61°17' E 004°55'9 9.2
2017-Mar-17 13:33N 61°26' E 004°58'1111.2
2017-Mar-17 12:33N 61°37' E 004°56'1010.2
2017-Mar-17 11:33N 61°43' E 004°38'8 7.6
2017-Mar-17 10:33N 61°51' E 004°36'5 5.1
2017-Mar-17 09:33N 61°55' E 004°40'3 3.1
2017-Mar-17 08:33N 61°58' E 004°43'3 3.0
2017-Mar-17 07:33N 62°01' E 004°46'3 2.7
2017-Mar-17 06:33N 62°03' E 004°49'2 2.0
2017-Mar-17 05:33N 62°05' E 004°51'2 1.8
2017-Mar-17 04:33N 62°07' E 004°52'2 1.6
2017-Mar-17 03:33N 62°08' E 004°54'2 1.7
2017-Mar-17 02:33N 62°10' E 004°55'2 1.8
2017-Mar-17 01:33N 62°11' E 004°57'2 1.7
2017-Mar-17 00:33N 62°13' E 004°58'2 1.7
2017-Mar-16 23:33N 62°14' E 004°60'1 0.8
2017-Mar-16 22:33N 62°15' E 005°01'1 1.2
2017-Mar-16 21:33N 62°16' E 005°03'1 1.0
2017-Mar-16 20:33N 62°17' E 005°04'2 1.8
2017-Mar-16 19:33N 62°18' E 005°06'2 2.1
2017-Mar-16 18:33N 62°20' E 005°09'2 2.3
2017-Mar-16 17:33N 62°22' E 005°12'3 2.8
2017-Mar-16 16:33N 62°24' E 005°16'3 3.3
2017-Mar-16 15:33N 62°27' E 005°20'4 1.5
2017-Mar-16 13:15N 62°30' E 005°24'1 2.0
2017-Mar-16 12:33N 62°31' E 005°26'3 3.4
2017-Mar-16 11:34N 62°33' E 005°31'4 3.6
2017-Mar-16 10:33N 62°36' E 005°36'4 3.6
2017-Mar-16 09:33N 62°38' E 005°42'5 4.9
2017-Mar-16 08:33N 62°42' E 005°48'6 5.9
2017-Mar-16 07:33N 62°46' E 005°57'7 7.0
2017-Mar-16 06:33N 62°51' E 006°09'7 7.3
2017-Mar-16 05:33N 62°55' E 006°21'7 7.1
2017-Mar-16 04:33N 62°60' E 006°34'8 7.7
2017-Mar-16 03:33N 63°04' E 006°47'8 7.8
2017-Mar-16 02:33N 63°09' E 007°02'8 7.9
2017-Mar-16 01:33N 63°14' E 007°16'7 6.5
2017-Mar-16 00:33N 63°14' E 007°30'8 7.5
2017-Mar-15 23:33N 63°13' E 007°46'6 5.6
2017-Mar-15 22:33N 63°14' E 007°58'9 8.8
2017-Mar-15 21:33N 63°19' E 008°15'10 9.9
2017-Mar-15 20:33N 63°25' E 008°32'1010.3
2017-Mar-15 19:33N 63°28' E 008°54'9 8.9
2017-Mar-15 18:33N 63°24' E 009°11'5 4.6
2017-Mar-15 17:33N 63°19' E 009°09'0 0.0
2017-Mar-15 16:30N 63°19' E 009°09'0 0.0
2017-Mar-15 15:33N 63°19' E 009°09'0 0.0
2017-Mar-15 14:33N 63°19' E 009°09'0 0.0
2017-Mar-15 13:33N 63°19' E 009°09'0 0.0
2017-Mar-15 12:33N 63°19' E 009°09'0 0.0
2017-Mar-15 11:33N 63°19' E 009°09'0 0.0
2017-Mar-15 10:33N 63°19' E 009°09'0 0.0
2017-Mar-15 09:33N 63°19' E 009°09'0 0.0
2017-Mar-15 08:30N 63°19' E 009°09'0 0.0
2017-Mar-15 07:33N 63°19' E 009°09'0 0.0
2017-Mar-15 06:33N 63°19' E 009°09'0 0.0
2017-Mar-15 05:33N 63°19' E 009°09'0 0.0
2017-Mar-15 04:33N 63°19' E 009°09'0 0.0
2017-Mar-15 03:33N 63°19' E 009°09'0 0.0
2017-Mar-15 02:33N 63°19' E 009°09'0 0.0
2017-Mar-15 01:33N 63°19' E 009°09'0 0.0
2017-Mar-15 00:33N 63°19' E 009°09'0 0.0
2017-Mar-14 23:33N 63°19' E 009°09'0 0.0
2017-Mar-14 22:33N 63°19' E 009°09'0 0.0
2017-Mar-14 21:33N 63°19' E 009°09'0 0.0
2017-Mar-14 20:33N 63°19' E 009°09'0 0.0
2017-Mar-14 19:33N 63°19' E 009°09'0 0.0
2017-Mar-14 18:33N 63°19' E 009°09'0 0.0
2017-Mar-14 17:33N 63°19' E 009°09'0 0.0
2017-Mar-14 16:33N 63°19' E 009°09'0 0.0
2017-Mar-14 15:33N 63°19' E 009°09'0 0.0
2017-Mar-14 14:33N 63°19' E 009°09'0 0.0
2017-Mar-14 13:33N 63°19' E 009°09'0 0.0
2017-Mar-14 12:33N 63°19' E 009°09'0 0.0
2017-Mar-14 11:33N 63°19' E 009°09'0 0.0
2017-Mar-14 10:33N 63°19' E 009°09'0 0.0
2017-Mar-14 09:33N 63°19' E 009°09'0 0.0
2017-Mar-14 08:33N 63°19' E 009°09'0 0.0
2017-Mar-14 07:33N 63°19' E 009°09'0 0.0
2017-Mar-14 06:33N 63°19' E 009°09'0 0.0
2017-Mar-14 05:30N 63°19' E 009°09'0 0.0
2017-Mar-14 04:33N 63°19' E 009°09'0 0.0
2017-Mar-14 03:33N 63°19' E 009°09'0 0.0
2017-Mar-14 02:33N 63°19' E 009°09'0 0.0
2017-Mar-14 01:33N 63°19' E 009°09'0 0.0
2017-Mar-14 00:33N 63°19' E 009°09'0 0.0
2017-Mar-13 23:33N 63°19' E 009°09'0 0.1
2017-Mar-13 22:33N 63°19' E 009°09'0 0.0
2017-Mar-13 21:30N 63°19' E 009°09'  
Track history (hours):
 
Tides and Currents Weather Stations Pressure Air Temp Water Temp Dewpoint Dewpoint Depression Visibility Wind Speed Wind Dir Waves Ship Positions

Wilson Cadiz

Last reported at 2017-Mar-23 21:29 UTC. Time now 2017-Mar-26 05:20 UTC.
Position N 49°48' W 003°26'.

Length 100 m; draft 5.9 m.

Type: Ship. MMSI: 314216000.

Date/timePositionNaut miles runAvg speedWind from/ knotsBaromVisibWave heightAir tempDewpointWater temp
2017-Mar-23 21:29N 49°48' W 003°26'1311.1
2017-Mar-23 20:17N 49°55' W 003°09'810.7
2017-Mar-23 19:33N 49°59' W 002°58'1010.2
2017-Mar-23 18:33N 50°02' W 002°42'30 9.2
2017-Mar-23 15:18N 50°10' W 001°58'7 9.2
2017-Mar-23 14:33N 50°12' W 001°47'1110.0
2017-Mar-23 13:25N 50°15' W 001°30'4511.6
2017-Mar-23 09:33N 50°28' W 000°23'1111.4
2017-Mar-23 08:33N 50°31' W 000°06'1110.7
2017-Mar-23 07:31N 50°34' E 000°11'1010.1
2017-Mar-23 06:33N 50°37' E 000°26'10 9.7
2017-Mar-23 05:33N 50°41' E 000°39'10 9.8
2017-Mar-23 04:33N 50°46' E 000°53'1110.2
2017-Mar-23 03:27N 50°53' E 001°07'1011.0
2017-Mar-23 02:33N 50°60' E 001°18'1111.3
2017-Mar-23 01:33N 51°07' E 001°32'1110.7
2017-Mar-23 00:33N 51°14' E 001°45'1010.2
2017-Mar-22 23:33N 51°23' E 001°54'10 9.8
2017-Mar-22 22:33N 51°30' E 002°04'10 9.5
2017-Mar-22 21:33N 51°37' E 002°14'60 9.6
2017-Mar-22 15:17N 52°03' E 003°43'810.4
2017-Mar-22 14:33N 52°02' E 003°55'10 9.6
2017-Mar-22 13:33N 51°57' E 004°09'0 0.3
2017-Mar-22 12:32N 51°57' E 004°09'0 0.0
2017-Mar-22 11:32N 51°57' E 004°09'0 0.0
2017-Mar-22 10:33N 51°57' E 004°09'0 0.0
2017-Mar-22 09:33N 51°57' E 004°09'0 0.0
2017-Mar-22 08:33N 51°57' E 004°09'0 0.0
2017-Mar-22 07:33N 51°57' E 004°09'0 0.0
2017-Mar-22 06:33N 51°57' E 004°09'1 1.3
2017-Mar-22 05:33N 51°58' E 004°07'9 9.1
2017-Mar-22 04:33N 52°01' E 003°53'8 7.7
2017-Mar-22 03:32N 52°07' E 003°46'8 8.6
2017-Mar-22 02:33N 52°16' E 003°47'19 8.1
2017-Mar-22 00:12N 52°35' E 003°53'361 7.7
2017-Mar-20 01:28N 58°35' E 004°44'9 9.5
2017-Mar-20 00:34N 58°43' E 004°43'10 9.5
2017-Mar-19 23:33N 58°53' E 004°43'43 5.4
2017-Mar-19 15:33N 59°36' E 004°41'3 2.9
2017-Mar-19 14:33N 59°39' E 004°41'3 3.2
2017-Mar-19 13:33N 59°42' E 004°41'4 4.0
2017-Mar-19 12:33N 59°46' E 004°40'4 4.2
2017-Mar-19 11:32N 59°50' E 004°40'4 4.3
2017-Mar-19 10:33N 59°54' E 004°40'5 4.9
2017-Mar-19 09:33N 59°59' E 004°40'7 6.5
2017-Mar-19 08:33N 60°06' E 004°39'7 7.2
2017-Mar-19 07:33N 60°13' E 004°39'7 7.4
2017-Mar-19 06:33N 60°20' E 004°38'8 7.8
2017-Mar-19 05:33N 60°28' E 004°37'9 9.3
2017-Mar-19 04:33N 60°38' E 004°37'9 8.6
2017-Mar-19 03:33N 60°46' E 004°36'7 7.3
2017-Mar-19 02:33N 60°52' E 004°45'9 9.2
2017-Mar-19 01:33N 61°01' E 004°50'1110.6
2017-Mar-19 00:33N 61°06' E 005°09'1010.4
2017-Mar-18 23:33N 61°05' E 005°31'1110.7
2017-Mar-18 22:33N 61°08' E 005°52'1111.0
2017-Mar-18 21:33N 61°07' E 006°15'1010.0
2017-Mar-18 20:33N 61°09' E 006°35'9 9.4
2017-Mar-18 19:33N 61°08' E 006°54'10 9.9
2017-Mar-18 18:33N 60°58' E 007°00'7 0.6
2017-Mar-18 07:08N 60°53' E 006°50'0 0.0
2017-Mar-18 06:11N 60°53' E 006°50'0 0.0
2017-Mar-18 05:32N 60°53' E 006°50'0 0.0
2017-Mar-18 04:29N 60°53' E 006°50'0 0.0
2017-Mar-18 00:29N 60°53' E 006°50'1 0.3
2017-Mar-17 21:27N 60°54' E 006°52'7 8.2
2017-Mar-17 20:33N 60°59' E 007°02'1211.8
2017-Mar-17 19:33N 61°09' E 006°50'1111.4
2017-Mar-17 18:33N 61°06' E 006°27'1313.2
2017-Mar-17 17:33N 61°08' E 006°00'1312.9
2017-Mar-17 16:33N 61°06' E 005°34'1212.1
2017-Mar-17 15:33N 61°07' E 005°09'1211.6
2017-Mar-17 14:33N 61°17' E 004°55'9 9.2
2017-Mar-17 13:33N 61°26' E 004°58'1111.2
2017-Mar-17 12:33N 61°37' E 004°56'1010.2
2017-Mar-17 11:33N 61°43' E 004°38'8 7.6
2017-Mar-17 10:33N 61°51' E 004°36'5 5.1
2017-Mar-17 09:33N 61°55' E 004°40'3 3.1
2017-Mar-17 08:33N 61°58' E 004°43'3 3.0
2017-Mar-17 07:33N 62°01' E 004°46'3 2.7
2017-Mar-17 06:33N 62°03' E 004°49'2 2.0
2017-Mar-17 05:33N 62°05' E 004°51'2 1.8
2017-Mar-17 04:33N 62°07' E 004°52'2 1.6
2017-Mar-17 03:33N 62°08' E 004°54'2 1.7
2017-Mar-17 02:33N 62°10' E 004°55'2 1.8
2017-Mar-17 01:33N 62°11' E 004°57'2 1.7
2017-Mar-17 00:33N 62°13' E 004°58'2 1.7
2017-Mar-16 23:33N 62°14' E 004°60'1 0.8
2017-Mar-16 22:33N 62°15' E 005°01'1 1.2
2017-Mar-16 21:33N 62°16' E 005°03'1 1.0
2017-Mar-16 20:33N 62°17' E 005°04'2 1.8
2017-Mar-16 19:33N 62°18' E 005°06'2 2.1
2017-Mar-16 18:33N 62°20' E 005°09'2 2.3
2017-Mar-16 17:33N 62°22' E 005°12'3 2.8
2017-Mar-16 16:33N 62°24' E 005°16'3 3.3
2017-Mar-16 15:33N 62°27' E 005°20'4 1.5
2017-Mar-16 13:15N 62°30' E 005°24'1 2.0
2017-Mar-16 12:33N 62°31' E 005°26'3 3.4
2017-Mar-16 11:34N 62°33' E 005°31'4 3.6
2017-Mar-16 10:33N 62°36' E 005°36'4 3.6
2017-Mar-16 09:33N 62°38' E 005°42'5 4.9
2017-Mar-16 08:33N 62°42' E 005°48'6 5.9
2017-Mar-16 07:33N 62°46' E 005°57'7 7.0
2017-Mar-16 06:33N 62°51' E 006°09'7 7.3
2017-Mar-16 05:33N 62°55' E 006°21'7 7.1
2017-Mar-16 04:33N 62°60' E 006°34'8 7.7
2017-Mar-16 03:33N 63°04' E 006°47'8 7.8
2017-Mar-16 02:33N 63°09' E 007°02'8 7.9
2017-Mar-16 01:33N 63°14' E 007°16'7 6.5
2017-Mar-16 00:33N 63°14' E 007°30'8 7.5
2017-Mar-15 23:33N 63°13' E 007°46'6 5.6
2017-Mar-15 22:33N 63°14' E 007°58'9 8.8
2017-Mar-15 21:33N 63°19' E 008°15'10 9.9
2017-Mar-15 20:33N 63°25' E 008°32'1010.3
2017-Mar-15 19:33N 63°28' E 008°54'9 8.9
2017-Mar-15 18:33N 63°24' E 009°11'5 4.6
2017-Mar-15 17:33N 63°19' E 009°09'0 0.0
2017-Mar-15 16:30N 63°19' E 009°09'0 0.0
2017-Mar-15 15:33N 63°19' E 009°09'0 0.0
2017-Mar-15 14:33N 63°19' E 009°09'0 0.0
2017-Mar-15 13:33N 63°19' E 009°09'0 0.0
2017-Mar-15 12:33N 63°19' E 009°09'0 0.0
2017-Mar-15 11:33N 63°19' E 009°09'0 0.0
2017-Mar-15 10:33N 63°19' E 009°09'0 0.0
2017-Mar-15 09:33N 63°19' E 009°09'0 0.0
2017-Mar-15 08:30N 63°19' E 009°09'0 0.0
2017-Mar-15 07:33N 63°19' E 009°09'0 0.0
2017-Mar-15 06:33N 63°19' E 009°09'0 0.0
2017-Mar-15 05:33N 63°19' E 009°09'0 0.0
2017-Mar-15 04:33N 63°19' E 009°09'0 0.0
2017-Mar-15 03:33N 63°19' E 009°09'0 0.0
2017-Mar-15 02:33N 63°19' E 009°09'0 0.0
2017-Mar-15 01:33N 63°19' E 009°09'0 0.0
2017-Mar-15 00:33N 63°19' E 009°09'0 0.0
2017-Mar-14 23:33N 63°19' E 009°09'0 0.0
2017-Mar-14 22:33N 63°19' E 009°09'0 0.0
2017-Mar-14 21:33N 63°19' E 009°09'0 0.0
2017-Mar-14 20:33N 63°19' E 009°09'0 0.0
2017-Mar-14 19:33N 63°19' E 009°09'0 0.0
2017-Mar-14 18:33N 63°19' E 009°09'0 0.0
2017-Mar-14 17:33N 63°19' E 009°09'0 0.0
2017-Mar-14 16:33N 63°19' E 009°09'0 0.0
2017-Mar-14 15:33N 63°19' E 009°09'0 0.0
2017-Mar-14 14:33N 63°19' E 009°09'0 0.0
2017-Mar-14 13:33N 63°19' E 009°09'0 0.0
2017-Mar-14 12:33N 63°19' E 009°09'0 0.0
2017-Mar-14 11:33N 63°19' E 009°09'0 0.0
2017-Mar-14 10:33N 63°19' E 009°09'0 0.0
2017-Mar-14 09:33N 63°19' E 009°09'0 0.0
2017-Mar-14 08:33N 63°19' E 009°09'0 0.0
2017-Mar-14 07:33N 63°19' E 009°09'0 0.0
2017-Mar-14 06:33N 63°19' E 009°09'0 0.0
2017-Mar-14 05:30N 63°19' E 009°09'0 0.0
2017-Mar-14 04:33N 63°19' E 009°09'0 0.0
2017-Mar-14 03:33N 63°19' E 009°09'0 0.0
2017-Mar-14 02:33N 63°19' E 009°09'0 0.0
2017-Mar-14 01:33N 63°19' E 009°09'0 0.0
2017-Mar-14 00:33N 63°19' E 009°09'0 0.0
2017-Mar-13 23:33N 63°19' E 009°09'0 0.1
2017-Mar-13 22:33N 63°19' E 009°09'0 0.0
2017-Mar-13 21:30N 63°19' E 009°09'  

Dump ship's entire track history